Terminal Aerodrome Forecast
Issued by NWS Wakefield, VA

Home | Current Version | Previous Version | Text Only | Print | Product List | Glossary On
Versions: 1 2 3 4 5 6 7 8 9 10 11 12 13 14
000
FTUS41 KAKQ 251720
TAFRIC
TAF
KRIC 251720Z 2518/2618 21013G20KT P6SM FEW050 SCT250
     FM252300 18008KT P6SM SKC
     FM261600 20010G17KT P6SM BKN250=

USA.gov is the U.S. government's official web portal to all federal, state and local government web resources and services.